sensor_id;sensor_type;location;lat;lon;timestamp;temperature;humidity
70074;DHT22;57445;51.058;3.698;2023-02-22T00:01:11;8.40;99.90
70074;DHT22;57445;51.058;3.698;2023-02-22T00:03:52;8.40;99.90
70074;DHT22;57445;51.058;3.698;2023-02-22T00:06:22;8.30;99.90
70074;DHT22;57445;51.058;3.698;2023-02-22T00:08:55;8.40;99.90
70074;DHT22;57445;51.058;3.698;2023-02-22T00:11:23;8.30;99.90
70074;DHT22;57445;51.058;3.698;2023-02-22T00:13:50;8.30;99.90
70074;DHT22;57445;51.058;3.698;2023-02-22T00:16:20;8.20;99.90
70074;DHT22;57445;51.058;3.698;2023-02-22T00:18:53;8.10;99.90
70074;DHT22;57445;51.058;3.698;2023-02-22T00:21:26;8.00;99.90
70074;DHT22;57445;51.058;3.698;2023-02-22T00:24:01;8.00;99.90
70074;DHT22;57445;51.058;3.698;2023-02-22T00:26:46;8.00;99.90
70074;DHT22;57445;51.058;3.698;2023-02-22T00:29:18;8.00;99.90
70074;DHT22;57445;51.058;3.698;2023-02-22T00:31:50;8.00;99.90
70074;DHT22;57445;51.058;3.698;2023-02-22T00:34:24;8.10;99.90
70074;DHT22;57445;51.058;3.698;2023-02-22T00:36:57;8.20;99.90
70074;DHT22;57445;51.058;3.698;2023-02-22T00:39:32;8.20;99.90
70074;DHT22;57445;51.058;3.698;2023-02-22T00:42:04;8.20;99.90
70074;DHT22;57445;51.058;3.698;2023-02-22T00:44:32;8.20;99.90
70074;DHT22;57445;51.058;3.698;2023-02-22T00:47:04;8.20;99.90
70074;DHT22;57445;51.058;3.698;2023-02-22T00:49:36;8.30;99.90
70074;DHT22;57445;51.058;3.698;2023-02-22T00:52:10;8.30;99.90
70074;DHT22;57445;51.058;3.698;2023-02-22T00:54:37;8.30;99.90
70074;DHT22;57445;51.058;3.698;2023-02-22T00:57:09;8.30;99.90
70074;DHT22;57445;51.058;3.698;2023-02-22T00:59:39;8.10;99.90
70074;DHT22;57445;51.058;3.698;2023-02-22T01:02:06;8.10;99.90
70074;DHT22;57445;51.058;3.698;2023-02-22T01:04:40;8.00;99.90
70074;DHT22;57445;51.058;3.698;2023-02-22T01:07:07;8.00;99.90
70074;DHT22;57445;51.058;3.698;2023-02-22T01:09:36;8.00;99.90
70074;DHT22;57445;51.058;3.698;2023-02-22T01:12:09;8.00;99.90
70074;DHT22;57445;51.058;3.698;2023-02-22T01:14:43;8.10;99.90
70074;DHT22;57445;51.058;3.698;2023-02-22T01:17:14;8.20;99.90
70074;DHT22;57445;51.058;3.698;2023-02-22T01:19:46;8.50;99.90
70074;DHT22;57445;51.058;3.698;2023-02-22T01:22:19;8.30;99.90
70074;DHT22;57445;51.058;3.698;2023-02-22T01:24:52;8.20;99.90
70074;DHT22;57445;51.058;3.698;2023-02-22T01:27:24;8.10;99.90
70074;DHT22;57445;51.058;3.698;2023-02-22T01:29:52;8.20;99.90
70074;DHT22;57445;51.058;3.698;2023-02-22T01:32:19;8.20;99.90
70074;DHT22;57445;51.058;3.698;2023-02-22T01:34:51;8.10;99.90
70074;DHT22;57445;51.058;3.698;2023-02-22T01:37:23;8.10;99.90
70074;DHT22;57445;51.058;3.698;2023-02-22T01:39:56;8.10;99.90
70074;DHT22;57445;51.058;3.698;2023-02-22T01:42:29;8.00;99.90
70074;DHT22;57445;51.058;3.698;2023-02-22T01:47:43;8.00;99.90
70074;DHT22;57445;51.058;3.698;2023-02-22T01:50:15;8.00;99.90
70074;DHT22;57445;51.058;3.698;2023-02-22T01:52:42;8.00;99.90
70074;DHT22;57445;51.058;3.698;2023-02-22T01:55:11;8.00;99.90
70074;DHT22;57445;51.058;3.698;2023-02-22T01:57:38;8.10;99.90
70074;DHT22;57445;51.058;3.698;2023-02-22T02:00:07;8.00;99.90
70074;DHT22;57445;51.058;3.698;2023-02-22T02:02:36;8.20;99.90
70074;DHT22;57445;51.058;3.698;2023-02-22T02:05:10;8.20;99.90
70074;DHT22;57445;51.058;3.698;2023-02-22T02:07:42;8.10;99.90
70074;DHT22;57445;51.058;3.698;2023-02-22T02:10:17;8.10;99.90
70074;DHT22;57445;51.058;3.698;2023-02-22T02:12:49;8.20;99.90
70074;DHT22;57445;51.058;3.698;2023-02-22T02:15:25;8.20;99.90
70074;DHT22;57445;51.058;3.698;2023-02-22T02:17:54;8.00;99.90
70074;DHT22;57445;51.058;3.698;2023-02-22T02:20:30;8.00;99.90
70074;DHT22;57445;51.058;3.698;2023-02-22T02:23:09;8.00;99.90
70074;DHT22;57445;51.058;3.698;2023-02-22T02:25:50;8.10;99.90
70074;DHT22;57445;51.058;3.698;2023-02-22T02:28:38;8.00;99.90
70074;DHT22;57445;51.058;3.698;2023-02-22T02:34:03;7.90;99.90
70074;DHT22;57445;51.058;3.698;2023-02-22T02:36:32;8.00;99.90
70074;DHT22;57445;51.058;3.698;2023-02-22T02:41:52;8.00;99.90
70074;DHT22;57445;51.058;3.698;2023-02-22T02:44:26;8.00;99.90
70074;DHT22;57445;51.058;3.698;2023-02-22T02:47:00;8.00;99.90
70074;DHT22;57445;51.058;3.698;2023-02-22T02:49:30;8.00;99.90
70074;DHT22;57445;51.058;3.698;2023-02-22T02:52:04;8.00;99.90
70074;DHT22;57445;51.058;3.698;2023-02-22T02:54:33;8.00;99.90
70074;DHT22;57445;51.058;3.698;2023-02-22T02:57:03;7.90;99.90
70074;DHT22;57445;51.058;3.698;2023-02-22T02:59:36;7.90;99.90
70074;DHT22;57445;51.058;3.698;2023-02-22T03:02:09;8.00;99.90
70074;DHT22;57445;51.058;3.698;2023-02-22T03:04:57;7.90;99.90
70074;DHT22;57445;51.058;3.698;2023-02-22T03:07:40;8.00;99.90
70074;DHT22;57445;51.058;3.698;2023-02-22T03:10:28;8.10;99.90
70074;DHT22;57445;51.058;3.698;2023-02-22T03:12:59;8.00;99.90
70074;DHT22;57445;51.058;3.698;2023-02-22T03:15:32;8.00;99.90
70074;DHT22;57445;51.058;3.698;2023-02-22T03:18:02;8.00;99.90
70074;DHT22;57445;51.058;3.698;2023-02-22T03:20:40;8.00;99.90
70074;DHT22;57445;51.058;3.698;2023-02-22T03:23:11;8.00;99.90
70074;DHT22;57445;51.058;3.698;2023-02-22T03:25:42;8.20;99.90
70074;DHT22;57445;51.058;3.698;2023-02-22T03:28:17;8.00;99.90
70074;DHT22;57445;51.058;3.698;2023-02-22T03:30:50;8.00;99.90
70074;DHT22;57445;51.058;3.698;2023-02-22T03:33:26;7.80;99.90
70074;DHT22;57445;51.058;3.698;2023-02-22T03:36:06;7.80;99.90
70074;DHT22;57445;51.058;3.698;2023-02-22T03:38:35;7.80;99.90
70074;DHT22;57445;51.058;3.698;2023-02-22T03:41:07;8.10;99.90
70074;DHT22;57445;51.058;3.698;2023-02-22T03:43:41;8.10;99.90
70074;DHT22;57445;51.058;3.698;2023-02-22T03:46:09;8.20;99.90
70074;DHT22;57445;51.058;3.698;2023-02-22T03:48:44;8.20;99.90
70074;DHT22;57445;51.058;3.698;2023-02-22T03:51:20;8.20;99.90
70074;DHT22;57445;51.058;3.698;2023-02-22T03:53:53;8.20;99.90
70074;DHT22;57445;51.058;3.698;2023-02-22T03:56:21;8.10;99.90
70074;DHT22;57445;51.058;3.698;2023-02-22T03:58:54;8.20;99.90
70074;DHT22;57445;51.058;3.698;2023-02-22T04:01:26;8.30;99.90
70074;DHT22;57445;51.058;3.698;2023-02-22T04:03:53;8.30;99.90
70074;DHT22;57445;51.058;3.698;2023-02-22T04:06:27;8.40;99.90
70074;DHT22;57445;51.058;3.698;2023-02-22T04:08:59;8.40;99.90
70074;DHT22;57445;51.058;3.698;2023-02-22T04:11:31;8.40;99.90
70074;DHT22;57445;51.058;3.698;2023-02-22T04:13:58;8.40;99.90
70074;DHT22;57445;51.058;3.698;2023-02-22T04:16:30;8.30;99.90
70074;DHT22;57445;51.058;3.698;2023-02-22T04:19:02;8.30;99.90
70074;DHT22;57445;51.058;3.698;2023-02-22T04:21:36;8.30;99.90
70074;DHT22;57445;51.058;3.698;2023-02-22T04:24:03;8.70;99.90
70074;DHT22;57445;51.058;3.698;2023-02-22T04:26:31;8.40;99.90
70074;DHT22;57445;51.058;3.698;2023-02-22T04:29:03;8.30;99.90
70074;DHT22;57445;51.058;3.698;2023-02-22T04:31:35;8.30;99.90
70074;DHT22;57445;51.058;3.698;2023-02-22T04:34:07;8.30;99.90
70074;DHT22;57445;51.058;3.698;2023-02-22T04:36:40;8.30;99.90
70074;DHT22;57445;51.058;3.698;2023-02-22T04:39:14;8.30;99.90
70074;DHT22;57445;51.058;3.698;2023-02-22T04:41:41;8.40;99.90
70074;DHT22;57445;51.058;3.698;2023-02-22T04:44:13;8.20;99.90
70074;DHT22;57445;51.058;3.698;2023-02-22T04:46:45;8.20;99.90
70074;DHT22;57445;51.058;3.698;2023-02-22T04:49:12;8.20;99.90
70074;DHT22;57445;51.058;3.698;2023-02-22T04:51:46;8.30;99.90
70074;DHT22;57445;51.058;3.698;2023-02-22T04:54:18;8.20;99.90
70074;DHT22;57445;51.058;3.698;2023-02-22T04:56:45;8.20;99.90
70074;DHT22;57445;51.058;3.698;2023-02-22T04:59:13;8.20;99.90
70074;DHT22;57445;51.058;3.698;2023-02-22T05:01:45;8.30;99.90
70074;DHT22;57445;51.058;3.698;2023-02-22T05:04:13;8.20;99.90
70074;DHT22;57445;51.058;3.698;2023-02-22T05:06:41;8.20;99.90
70074;DHT22;57445;51.058;3.698;2023-02-22T05:09:14;8.10;99.90
70074;DHT22;57445;51.058;3.698;2023-02-22T05:11:41;8.10;99.90
70074;DHT22;57445;51.058;3.698;2023-02-22T05:14:16;8.10;99.90
70074;DHT22;57445;51.058;3.698;2023-02-22T05:16:43;8.10;99.90
70074;DHT22;57445;51.058;3.698;2023-02-22T05:19:15;8.10;99.90
70074;DHT22;57445;51.058;3.698;2023-02-22T05:21:43;8.50;99.90
70074;DHT22;57445;51.058;3.698;2023-02-22T05:24:10;8.10;99.90
70074;DHT22;57445;51.058;3.698;2023-02-22T05:26:39;8.30;99.90
70074;DHT22;57445;51.058;3.698;2023-02-22T05:29:11;8.00;99.90
70074;DHT22;57445;51.058;3.698;2023-02-22T05:31:43;8.10;99.90
70074;DHT22;57445;51.058;3.698;2023-02-22T05:34:11;8.10;99.90
70074;DHT22;57445;51.058;3.698;2023-02-22T05:36:39;8.10;99.90
70074;DHT22;57445;51.058;3.698;2023-02-22T05:39:11;8.10;99.90
70074;DHT22;57445;51.058;3.698;2023-02-22T05:41:40;8.30;99.90
70074;DHT22;57445;51.058;3.698;2023-02-22T05:44:13;8.10;99.90
70074;DHT22;57445;51.058;3.698;2023-02-22T05:46:45;8.20;99.90
70074;DHT22;57445;51.058;3.698;2023-02-22T05:49:19;8.20;99.90
70074;DHT22;57445;51.058;3.698;2023-02-22T05:51:46;8.20;99.90
70074;DHT22;57445;51.058;3.698;2023-02-22T05:54:18;8.40;99.90
70074;DHT22;57445;51.058;3.698;2023-02-22T05:56:52;8.50;99.90
70074;DHT22;57445;51.058;3.698;2023-02-22T05:59:23;8.50;99.90
70074;DHT22;57445;51.058;3.698;2023-02-22T06:01:56;8.50;99.90
70074;DHT22;57445;51.058;3.698;2023-02-22T06:04:29;8.50;99.90
70074;DHT22;57445;51.058;3.698;2023-02-22T06:06:56;8.40;99.90
70074;DHT22;57445;51.058;3.698;2023-02-22T06:09:25;8.30;99.90
70074;DHT22;57445;51.058;3.698;2023-02-22T06:11:54;8.00;99.90
70074;DHT22;57445;51.058;3.698;2023-02-22T06:14:26;7.80;99.90
70074;DHT22;57445;51.058;3.698;2023-02-22T06:16:53;8.00;99.90
70074;DHT22;57445;51.058;3.698;2023-02-22T06:19:26;8.30;99.90
70074;DHT22;57445;51.058;3.698;2023-02-22T06:21:58;8.30;99.90
70074;DHT22;57445;51.058;3.698;2023-02-22T06:24:28;8.50;99.90
70074;DHT22;57445;51.058;3.698;2023-02-22T06:27:01;8.60;99.90
70074;DHT22;57445;51.058;3.698;2023-02-22T06:29:33;8.50;99.90
70074;DHT22;57445;51.058;3.698;2023-02-22T06:32:05;8.40;99.90
70074;DHT22;57445;51.058;3.698;2023-02-22T06:34:37;8.20;99.90
70074;DHT22;57445;51.058;3.698;2023-02-22T06:37:10;8.10;99.90
70074;DHT22;57445;51.058;3.698;2023-02-22T06:39:38;8.20;99.90
70074;DHT22;57445;51.058;3.698;2023-02-22T06:42:11;8.30;99.90
70074;DHT22;57445;51.058;3.698;2023-02-22T06:44:44;8.50;99.90
70074;DHT22;57445;51.058;3.698;2023-02-22T06:47:16;8.40;99.90
70074;DHT22;57445;51.058;3.698;2023-02-22T06:49:51;8.30;99.90
70074;DHT22;57445;51.058;3.698;2023-02-22T06:52:18;8.30;99.90
70074;DHT22;57445;51.058;3.698;2023-02-22T06:54:50;8.40;99.90
70074;DHT22;57445;51.058;3.698;2023-02-22T06:57:19;8.50;99.90
70074;DHT22;57445;51.058;3.698;2023-02-22T06:59:52;8.50;99.90
70074;DHT22;57445;51.058;3.698;2023-02-22T07:02:24;8.50;99.90
70074;DHT22;57445;51.058;3.698;2023-02-22T07:04:51;8.70;99.90
70074;DHT22;57445;51.058;3.698;2023-02-22T07:07:21;8.60;99.90
70074;DHT22;57445;51.058;3.698;2023-02-22T07:09:48;8.70;99.90
70074;DHT22;57445;51.058;3.698;2023-02-22T07:12:16;8.60;99.90
70074;DHT22;57445;51.058;3.698;2023-02-22T07:14:49;8.70;99.90
70074;DHT22;57445;51.058;3.698;2023-02-22T07:17:20;8.70;99.90
70074;DHT22;57445;51.058;3.698;2023-02-22T07:19:52;9.10;99.90
70074;DHT22;57445;51.058;3.698;2023-02-22T07:22:24;9.00;99.90
70074;DHT22;57445;51.058;3.698;2023-02-22T07:24:52;9.00;99.90
70074;DHT22;57445;51.058;3.698;2023-02-22T07:27:20;9.00;99.90
70074;DHT22;57445;51.058;3.698;2023-02-22T07:29:47;9.10;99.90
70074;DHT22;57445;51.058;3.698;2023-02-22T07:32:22;9.20;99.90
70074;DHT22;57445;51.058;3.698;2023-02-22T07:34:54;9.10;99.90
70074;DHT22;57445;51.058;3.698;2023-02-22T07:37:23;9.20;99.90
70074;DHT22;57445;51.058;3.698;2023-02-22T07:39:55;9.60;99.90
70074;DHT22;57445;51.058;3.698;2023-02-22T07:42:23;9.20;99.90
70074;DHT22;57445;51.058;3.698;2023-02-22T07:44:51;8.90;99.90
70074;DHT22;57445;51.058;3.698;2023-02-22T07:47:25;8.80;99.90
70074;DHT22;57445;51.058;3.698;2023-02-22T07:49:52;8.80;99.90
70074;DHT22;57445;51.058;3.698;2023-02-22T07:52:25;9.00;99.90
70074;DHT22;57445;51.058;3.698;2023-02-22T07:54:53;9.10;99.90
70074;DHT22;57445;51.058;3.698;2023-02-22T07:57:25;9.20;99.90
70074;DHT22;57445;51.058;3.698;2023-02-22T07:59:57;9.40;99.90
70074;DHT22;57445;51.058;3.698;2023-02-22T08:02:26;9.50;99.90
70074;DHT22;57445;51.058;3.698;2023-02-22T08:04:54;9.40;99.90
70074;DHT22;57445;51.058;3.698;2023-02-22T08:07:26;9.50;99.90
70074;DHT22;57445;51.058;3.698;2023-02-22T08:09:58;9.70;99.90
70074;DHT22;57445;51.058;3.698;2023-02-22T08:12:30;9.70;99.80
70074;DHT22;57445;51.058;3.698;2023-02-22T08:14:58;9.90;99.50
70074;DHT22;57445;51.058;3.698;2023-02-22T08:17:32;10.00;99.10
70074;DHT22;57445;51.058;3.698;2023-02-22T08:19:59;10.00;98.90
70074;DHT22;57445;51.058;3.698;2023-02-22T08:22:33;10.00;99.10
70074;DHT22;57445;51.058;3.698;2023-02-22T08:25:05;10.30;98.40
70074;DHT22;57445;51.058;3.698;2023-02-22T08:27:38;10.60;99.40
70074;DHT22;57445;51.058;3.698;2023-02-22T08:30:11;10.60;98.70
70074;DHT22;57445;51.058;3.698;2023-02-22T08:32:45;10.80;98.00
70074;DHT22;57445;51.058;3.698;2023-02-22T08:35:19;10.50;98.20
70074;DHT22;57445;51.058;3.698;2023-02-22T08:37:52;10.60;97.90
70074;DHT22;57445;51.058;3.698;2023-02-22T08:40:25;10.70;97.80
70074;DHT22;57445;51.058;3.698;2023-02-22T08:42:58;11.00;97.50
70074;DHT22;57445;51.058;3.698;2023-02-22T08:45:26;11.00;96.80
70074;DHT22;57445;51.058;3.698;2023-02-22T08:48:00;11.20;97.10
70074;DHT22;57445;51.058;3.698;2023-02-22T08:50:33;11.20;96.40
70074;DHT22;57445;51.058;3.698;2023-02-22T08:53:02;10.80;96.80
70074;DHT22;57445;51.058;3.698;2023-02-22T08:55:31;11.00;97.10
70074;DHT22;57445;51.058;3.698;2023-02-22T08:57:59;11.20;96.70
70074;DHT22;57445;51.058;3.698;2023-02-22T09:00:29;11.20;96.70
70074;DHT22;57445;51.058;3.698;2023-02-22T09:02:59;11.30;96.70
70074;DHT22;57445;51.058;3.698;2023-02-22T09:05:27;11.40;95.80
70074;DHT22;57445;51.058;3.698;2023-02-22T09:07:59;11.40;96.30
70074;DHT22;57445;51.058;3.698;2023-02-22T09:10:29;11.30;96.50
70074;DHT22;57445;51.058;3.698;2023-02-22T09:13:01;11.40;96.30
70074;DHT22;57445;51.058;3.698;2023-02-22T09:15:29;11.70;95.90
70074;DHT22;57445;51.058;3.698;2023-02-22T09:18:03;12.00;95.40
70074;DHT22;57445;51.058;3.698;2023-02-22T09:20:35;12.10;95.40
70074;DHT22;57445;51.058;3.698;2023-02-22T09:23:03;11.80;95.60
70074;DHT22;57445;51.058;3.698;2023-02-22T09:25:36;11.50;96.30
70074;DHT22;57445;51.058;3.698;2023-02-22T09:28:10;11.30;97.00
70074;DHT22;57445;51.058;3.698;2023-02-22T09:30:42;11.00;97.30
70074;DHT22;57445;51.058;3.698;2023-02-22T09:33:11;11.10;97.40
70074;DHT22;57445;51.058;3.698;2023-02-22T09:35:44;11.50;96.90
70074;DHT22;57445;51.058;3.698;2023-02-22T09:38:17;11.70;96.80
70074;DHT22;57445;51.058;3.698;2023-02-22T09:40:46;12.10;96.40
70074;DHT22;57445;51.058;3.698;2023-02-22T09:43:26;12.40;95.80
70074;DHT22;57445;51.058;3.698;2023-02-22T09:46:04;12.50;96.50
70074;DHT22;57445;51.058;3.698;2023-02-22T09:48:45;12.60;95.60
70074;DHT22;57445;51.058;3.698;2023-02-22T09:51:22;12.50;95.60
70074;DHT22;57445;51.058;3.698;2023-02-22T09:53:58;12.30;95.80
70074;DHT22;57445;51.058;3.698;2023-02-22T09:56:30;11.90;96.30
70074;DHT22;57445;51.058;3.698;2023-02-22T09:59:04;11.80;96.80
70074;DHT22;57445;51.058;3.698;2023-02-22T10:01:38;11.70;97.10
70074;DHT22;57445;51.058;3.698;2023-02-22T10:04:16;11.80;97.30
70074;DHT22;57445;51.058;3.698;2023-02-22T10:06:55;12.30;96.50
70074;DHT22;57445;51.058;3.698;2023-02-22T10:09:33;12.20;96.50
70074;DHT22;57445;51.058;3.698;2023-02-22T10:12:04;12.40;96.40
70074;DHT22;57445;51.058;3.698;2023-02-22T10:14:44;13.00;95.40
70074;DHT22;57445;51.058;3.698;2023-02-22T10:17:15;12.90;95.30
70074;DHT22;57445;51.058;3.698;2023-02-22T10:19:52;13.20;95.40
70074;DHT22;57445;51.058;3.698;2023-02-22T10:22:38;13.30;95.20
70074;DHT22;57445;51.058;3.698;2023-02-22T10:25:09;12.90;95.50
70074;DHT22;57445;51.058;3.698;2023-02-22T10:27:44;12.90;95.80
70074;DHT22;57445;51.058;3.698;2023-02-22T10:30:18;12.60;96.50
70074;DHT22;57445;51.058;3.698;2023-02-22T10:32:52;12.10;97.40
70074;DHT22;57445;51.058;3.698;2023-02-22T10:35:23;11.80;98.00
70074;DHT22;57445;51.058;3.698;2023-02-22T10:37:52;12.10;97.80
70074;DHT22;57445;51.058;3.698;2023-02-22T10:40:25;12.50;97.30
70074;DHT22;57445;51.058;3.698;2023-02-22T10:43:02;12.50;97.00
70074;DHT22;57445;51.058;3.698;2023-02-22T10:45:31;11.90;98.20
70074;DHT22;57445;51.058;3.698;2023-02-22T10:48:02;12.00;98.60
70074;DHT22;57445;51.058;3.698;2023-02-22T10:50:35;11.90;98.50
70074;DHT22;57445;51.058;3.698;2023-02-22T10:53:04;12.00;98.60
70074;DHT22;57445;51.058;3.698;2023-02-22T10:55:32;11.90;98.70
70074;DHT22;57445;51.058;3.698;2023-02-22T10:58:05;11.80;99.30
70074;DHT22;57445;51.058;3.698;2023-02-22T11:00:33;11.70;99.40
70074;DHT22;57445;51.058;3.698;2023-02-22T11:03:14;11.90;99.00
70074;DHT22;57445;51.058;3.698;2023-02-22T11:05:48;12.50;98.20
70074;DHT22;57445;51.058;3.698;2023-02-22T11:08:23;12.80;97.40
70074;DHT22;57445;51.058;3.698;2023-02-22T11:10:56;12.20;98.30
70074;DHT22;57445;51.058;3.698;2023-02-22T11:13:27;11.70;99.60
70074;DHT22;57445;51.058;3.698;2023-02-22T11:15:57;11.90;99.30
70074;DHT22;57445;51.058;3.698;2023-02-22T11:18:31;12.00;99.30
70074;DHT22;57445;51.058;3.698;2023-02-22T11:21:05;11.80;99.50
70074;DHT22;57445;51.058;3.698;2023-02-22T11:23:40;11.90;99.40
70074;DHT22;57445;51.058;3.698;2023-02-22T11:26:16;11.70;99.70
70074;DHT22;57445;51.058;3.698;2023-02-22T11:28:50;11.90;99.50
70074;DHT22;57445;51.058;3.698;2023-02-22T11:31:26;12.30;98.70
70074;DHT22;57445;51.058;3.698;2023-02-22T11:33:59;12.20;98.90
70074;DHT22;57445;51.058;3.698;2023-02-22T11:36:34;12.70;98.50
70074;DHT22;57445;51.058;3.698;2023-02-22T11:39:03;12.70;97.80
70074;DHT22;57445;51.058;3.698;2023-02-22T11:41:31;12.70;97.80
70074;DHT22;57445;51.058;3.698;2023-02-22T11:44:13;12.80;98.00
70074;DHT22;57445;51.058;3.698;2023-02-22T11:46:45;12.80;97.50
70074;DHT22;57445;51.058;3.698;2023-02-22T11:49:17;12.80;97.50
70074;DHT22;57445;51.058;3.698;2023-02-22T11:51:55;12.60;97.90
70074;DHT22;57445;51.058;3.698;2023-02-22T11:54:38;12.60;98.20
70074;DHT22;57445;51.058;3.698;2023-02-22T11:57:14;12.10;99.10
70074;DHT22;57445;51.058;3.698;2023-02-22T11:59:55;12.10;99.50
70074;DHT22;57445;51.058;3.698;2023-02-22T12:02:36;11.50;99.70
70074;DHT22;57445;51.058;3.698;2023-02-22T12:05:16;12.10;99.60
70074;DHT22;57445;51.058;3.698;2023-02-22T12:07:54;12.10;99.60
70074;DHT22;57445;51.058;3.698;2023-02-22T12:10:37;12.40;99.30
70074;DHT22;57445;51.058;3.698;2023-02-22T12:13:19;12.20;99.30
70074;DHT22;57445;51.058;3.698;2023-02-22T12:15:52;12.20;99.60
70074;DHT22;57445;51.058;3.698;2023-02-22T12:18:29;12.00;99.60
70074;DHT22;57445;51.058;3.698;2023-02-22T12:20:59;11.90;99.90
70074;DHT22;57445;51.058;3.698;2023-02-22T12:23:35;11.80;99.90
70074;DHT22;57445;51.058;3.698;2023-02-22T12:26:14;11.60;99.90
70074;DHT22;57445;51.058;3.698;2023-02-22T12:28:52;11.40;99.90
70074;DHT22;57445;51.058;3.698;2023-02-22T12:31:25;11.50;99.90
70074;DHT22;57445;51.058;3.698;2023-02-22T12:34:00;11.70;99.90
70074;DHT22;57445;51.058;3.698;2023-02-22T12:36:34;11.90;99.90
70074;DHT22;57445;51.058;3.698;2023-02-22T12:39:23;11.90;99.90
70074;DHT22;57445;51.058;3.698;2023-02-22T12:41:53;11.70;99.90
70074;DHT22;57445;51.058;3.698;2023-02-22T12:44:22;11.50;99.90
70074;DHT22;57445;51.058;3.698;2023-02-22T12:46:56;11.50;99.90
70074;DHT22;57445;51.058;3.698;2023-02-22T12:49:27;11.40;99.90
70074;DHT22;57445;51.058;3.698;2023-02-22T12:52:02;11.40;99.90
70074;DHT22;57445;51.058;3.698;2023-02-22T12:54:40;11.30;99.90
70074;DHT22;57445;51.058;3.698;2023-02-22T12:57:18;11.60;99.90
70074;DHT22;57445;51.058;3.698;2023-02-22T12:59:47;11.40;99.90
70074;DHT22;57445;51.058;3.698;2023-02-22T13:02:21;11.70;99.90
70074;DHT22;57445;51.058;3.698;2023-02-22T13:04:56;11.50;99.90
70074;DHT22;57445;51.058;3.698;2023-02-22T13:07:32;11.30;99.90
70074;DHT22;57445;51.058;3.698;2023-02-22T13:10:17;11.70;99.90
70074;DHT22;57445;51.058;3.698;2023-02-22T13:12:53;11.70;99.90
70074;DHT22;57445;51.058;3.698;2023-02-22T13:15:27;11.60;99.90
70074;DHT22;57445;51.058;3.698;2023-02-22T13:18:03;11.50;99.90
70074;DHT22;57445;51.058;3.698;2023-02-22T13:20:38;11.70;99.90
70074;DHT22;57445;51.058;3.698;2023-02-22T13:23:13;11.30;99.90
70074;DHT22;57445;51.058;3.698;2023-02-22T13:25:49;11.10;99.90
70074;DHT22;57445;51.058;3.698;2023-02-22T13:28:27;11.30;99.90
70074;DHT22;57445;51.058;3.698;2023-02-22T13:31:05;11.70;99.90
70074;DHT22;57445;51.058;3.698;2023-02-22T13:33:49;11.40;99.90
70074;DHT22;57445;51.058;3.698;2023-02-22T13:36:30;11.10;99.90
70074;DHT22;57445;51.058;3.698;2023-02-22T13:42:07;11.00;99.90
70074;DHT22;57445;51.058;3.698;2023-02-22T13:44:46;11.50;99.90
70074;DHT22;57445;51.058;3.698;2023-02-22T13:53:10;11.90;99.90
70074;DHT22;57445;51.058;3.698;2023-02-22T13:55:45;11.90;99.90
70074;DHT22;57445;51.058;3.698;2023-02-22T13:58:20;12.20;99.90
70074;DHT22;57445;51.058;3.698;2023-02-22T14:00:55;12.20;99.90
70074;DHT22;57445;51.058;3.698;2023-02-22T14:03:37;12.40;99.90
70074;DHT22;57445;51.058;3.698;2023-02-22T14:06:34;12.00;99.90
70074;DHT22;57445;51.058;3.698;2023-02-22T14:09:07;11.60;99.90
70074;DHT22;57445;51.058;3.698;2023-02-22T14:11:40;11.40;99.90
70074;DHT22;57445;51.058;3.698;2023-02-22T14:14:11;11.40;99.90
70074;DHT22;57445;51.058;3.698;2023-02-22T14:16:44;11.50;99.90
70074;DHT22;57445;51.058;3.698;2023-02-22T14:19:31;11.20;99.90
70074;DHT22;57445;51.058;3.698;2023-02-22T14:21:59;11.40;99.90
70074;DHT22;57445;51.058;3.698;2023-02-22T14:24:40;11.50;99.90
70074;DHT22;57445;51.058;3.698;2023-02-22T14:27:08;11.40;99.90
70074;DHT22;57445;51.058;3.698;2023-02-22T14:29:38;11.30;99.90
70074;DHT22;57445;51.058;3.698;2023-02-22T14:32:20;11.40;99.90
70074;DHT22;57445;51.058;3.698;2023-02-22T14:35:02;11.30;99.90
70074;DHT22;57445;51.058;3.698;2023-02-22T14:37:36;11.60;99.90
70074;DHT22;57445;51.058;3.698;2023-02-22T14:40:11;11.70;99.90
70074;DHT22;57445;51.058;3.698;2023-02-22T14:42:50;11.70;99.90
70074;DHT22;57445;51.058;3.698;2023-02-22T14:45:22;11.60;99.90
70074;DHT22;57445;51.058;3.698;2023-02-22T14:47:52;11.60;99.90
70074;DHT22;57445;51.058;3.698;2023-02-22T14:50:33;11.60;99.90
70074;DHT22;57445;51.058;3.698;2023-02-22T14:53:04;11.80;99.90
70074;DHT22;57445;51.058;3.698;2023-02-22T14:55:36;12.10;99.90
70074;DHT22;57445;51.058;3.698;2023-02-22T14:58:14;12.40;99.90
70074;DHT22;57445;51.058;3.698;2023-02-22T15:00:50;12.40;99.90
70074;DHT22;57445;51.058;3.698;2023-02-22T15:03:24;12.10;99.90
70074;DHT22;57445;51.058;3.698;2023-02-22T15:06:02;12.10;99.90
70074;DHT22;57445;51.058;3.698;2023-02-22T15:08:30;12.10;99.90
70074;DHT22;57445;51.058;3.698;2023-02-22T15:11:03;12.10;99.90
70074;DHT22;57445;51.058;3.698;2023-02-22T15:13:31;12.20;99.90
70074;DHT22;57445;51.058;3.698;2023-02-22T15:16:01;12.20;99.90
70074;DHT22;57445;51.058;3.698;2023-02-22T15:18:34;12.50;99.90
70074;DHT22;57445;51.058;3.698;2023-02-22T15:21:05;12.60;99.90
70074;DHT22;57445;51.058;3.698;2023-02-22T15:23:41;12.80;99.90
70074;DHT22;57445;51.058;3.698;2023-02-22T15:26:20;12.70;99.90
70074;DHT22;57445;51.058;3.698;2023-02-22T15:28:53;12.50;99.90
70074;DHT22;57445;51.058;3.698;2023-02-22T15:31:28;12.40;99.90
70074;DHT22;57445;51.058;3.698;2023-02-22T15:33:56;12.40;99.90
70074;DHT22;57445;51.058;3.698;2023-02-22T15:36:25;12.30;99.90
70074;DHT22;57445;51.058;3.698;2023-02-22T15:38:59;12.10;99.90
70074;DHT22;57445;51.058;3.698;2023-02-22T15:41:37;11.70;99.90
70074;DHT22;57445;51.058;3.698;2023-02-22T15:44:06;11.80;99.90
70074;DHT22;57445;51.058;3.698;2023-02-22T15:46:35;11.80;99.90
70074;DHT22;57445;51.058;3.698;2023-02-22T15:49:17;12.00;99.90
70074;DHT22;57445;51.058;3.698;2023-02-22T15:51:58;12.00;99.90
70074;DHT22;57445;51.058;3.698;2023-02-22T15:54:27;11.90;99.90
70074;DHT22;57445;51.058;3.698;2023-02-22T15:56:56;12.00;99.90
70074;DHT22;57445;51.058;3.698;2023-02-22T15:59:24;12.10;99.90
70074;DHT22;57445;51.058;3.698;2023-02-22T16:02:01;11.80;99.90
70074;DHT22;57445;51.058;3.698;2023-02-22T16:04:29;11.70;99.90
70074;DHT22;57445;51.058;3.698;2023-02-22T16:07:02;11.70;99.90
70074;DHT22;57445;51.058;3.698;2023-02-22T16:09:31;11.70;99.90
70074;DHT22;57445;51.058;3.698;2023-02-22T16:12:06;11.50;99.90
70074;DHT22;57445;51.058;3.698;2023-02-22T16:14:40;11.70;99.90
70074;DHT22;57445;51.058;3.698;2023-02-22T16:17:25;11.90;99.90
70074;DHT22;57445;51.058;3.698;2023-02-22T16:20:00;11.90;99.90
70074;DHT22;57445;51.058;3.698;2023-02-22T16:22:36;11.50;99.90
70074;DHT22;57445;51.058;3.698;2023-02-22T16:25:22;12.20;99.90
70074;DHT22;57445;51.058;3.698;2023-02-22T16:27:52;12.30;99.90
70074;DHT22;57445;51.058;3.698;2023-02-22T16:30:27;12.40;99.90